Share

Nome, AK

4:41 AM AKDT on April 24, 2014 (GMT -0800)
BA Airport (KAKNOME7) Elev 37 ft | 64.51 °N, 165.45 °W | Change Station

Current weather conditions updated 1 minute ago

Overcast
Overcast
37.1 °F
Feels Like 37 °F
N
0.0
Wind Variable Wind from South
Gusts 27.0 mph
Sunrise 6:55 AM
Sunset 11:06 PM
Moon Waning Crescent

Today is forecast to be Much Cooler than yesterday.

Pressure 29.66 in
Visibility 10.0 miles
Clouds Overcast 9500 ft
Windchill 37 °F
Dew Point 31 °F
Humidity 78%
Rainfall 0.00 in
Snow Depth Not available.
UV 0 out of 16
Pollen Not available.
Air Quality Not available.
Flu Activity Sporadic
METAR PAOM 241153Z 00000KT 10SM OVC095 02/M01 A2966 RMK SLP042 T00221011 10083 20022 58002 VIA AUTODIAL

More Conditions Fewer Conditions

Pressure 29.66 in
Visibility 10.0 miles
Clouds Overcast 9500 ft
Windchill 37 °F
Dew Point 31 °F
Humidity 78%
Rainfall 0.00 in
Snow Depth Not available.
UV 0 out of 16
Pollen Not available.
Air Quality Not available.
Flu Activity Sporadic
METAR PAOM 241153Z 00000KT 10SM OVC095 02/M01 A2966 RMK SLP042 T00221011 10083 20022 58002 VIA AUTODIAL

More Conditions Fewer Conditions

10-Day Weather Forecast

Almanac

Astronomy

Apr. 24, 2014 Rise Set
Actual Time 6:55 AM AKDT 11:06 PM AKDT
Civil Twilight 5:51 AM AKDT 12:11 AM AKDT
Nautical Twilight 3:49 AM AKDT 2:26 AM AKDT
Astronomical Twilight Sun does not rise Sun does not rise
Moon 6:01 AM AKDT 4:57 PM AKDT
Length of Visible Light 18h 19m
Length of Day
16h 11m
Tomorrow will be 6m 48s longer.
Waning Crescent, 26% of the Moon is Illuminated
Today
Waning Crescent
Apr 29
New
May 6
First Quarter
May 14
Full
May 21
Last Quarter

Today's Extremes

State Highs State Lows

Community

  • Stacked
    Stacked
  • clouds approaching Red Sox Nation
    clouds approaching Red Sox Nation
  • Balance
    Balance
  • Nestled In
    Nestled In
  • Stunning Sunrise
    Stunning Sunrise

WunderPhotos

Upload Photos

1,704,594 photos uploaded!

Nearby

Snow Depth

Station Depth Elevation
Rocky Point 1 in 500 ft
Pargon Creek 0 in 300 ft
Gobblers Knob 6 in 2030 ft
Coldfoot 21 in 1040 ft
Susitna Valley High 12 in 375 ft

Coastal Water Temperatures

Place Temperature
No Stations Reporting

Earthquake Activity

City Distance Mag. Time & Date
No recent earthquake activity has been reported nearby.
Minimum magnitude displayed is 2.5.

Nearby Weather Stations

Station Location Temp. Windchill Dew Point Humidity Wind Precip. Elev Updated Type
BA Airport, Nome, AK 37.1 °F 37 °F 31 °F 78% South  at  0.0 mph 0.00 in / hr 37 ft 4:40 AM AKDT Normal
Dexter, Nome, AK 39.8 °F 40 °F 29 °F 64% East  at  2.0 mph 0.00 in / hr 45 ft 4:40 AM AKDT Normal
Banner Creek, Nome, AK 39.7 °F 40 °F 30 °F 67% NNW  at  3.0 mph 0.00 in / hr 75 ft 4:15 AM AKDT Normal

Show More Stations Show Fewer Stations

What do you think?

We're not finished. Please let us know what you like, what you don't like, and what you are still missing.